createdAt,value
2023-08-31T00:01:05.221Z,2.50
2023-08-31T00:03:33.527Z,2.60
2023-08-31T00:06:03.615Z,2.63
2023-08-31T00:08:30.847Z,2.63
2023-08-31T00:11:01.614Z,2.40
2023-08-31T00:13:30.197Z,2.60
2023-08-31T00:15:58.722Z,2.60
2023-08-31T00:18:27.107Z,2.50
2023-08-31T00:20:54.446Z,2.40
2023-08-31T00:23:21.586Z,2.60
2023-08-31T00:25:53.715Z,2.30
2023-08-31T00:28:21.203Z,2.10
2023-08-31T00:30:50.014Z,2.50
2023-08-31T00:33:18.141Z,2.17
2023-08-31T00:35:49.359Z,2.50
2023-08-31T00:38:16.532Z,2.43
2023-08-31T00:40:48.796Z,2.37
2023-08-31T00:43:21.215Z,2.13
2023-08-31T00:45:51.692Z,2.27
2023-08-31T00:48:19.948Z,2.07
2023-08-31T00:50:47.696Z,2.10
2023-08-31T00:53:16.351Z,2.33
2023-08-31T00:55:45.127Z,2.10
2023-08-31T00:58:12.493Z,2.30
2023-08-31T01:01:28.951Z,2.13
2023-08-31T01:04:13.662Z,2.40
2023-08-31T01:06:59.787Z,2.20
2023-08-31T01:09:32.655Z,2.50
2023-08-31T01:12:17.261Z,2.20
2023-08-31T01:15:00.586Z,2.20
2023-08-31T01:17:31.110Z,2.20
2023-08-31T01:20:00.878Z,2.13
2023-08-31T01:22:44.766Z,2.10
2023-08-31T01:25:12.183Z,2.30
2023-08-31T01:27:39.815Z,2.33
2023-08-31T01:30:07.738Z,2.10
2023-08-31T01:32:35.483Z,1.90
2023-08-31T01:35:06.613Z,2.00
2023-08-31T01:37:53.536Z,2.10
2023-08-31T01:40:22.410Z,1.73
2023-08-31T01:42:49.930Z,2.13
2023-08-31T01:45:22.161Z,2.10
2023-08-31T01:47:50.497Z,2.10
2023-08-31T01:50:19.136Z,1.73
2023-08-31T01:52:46.790Z,2.20
2023-08-31T01:55:16.967Z,1.70
2023-08-31T01:57:44.029Z,1.67
2023-08-31T02:00:18.507Z,1.87
2023-08-31T02:02:47.728Z,1.80
2023-08-31T02:05:15.274Z,1.70
2023-08-31T02:07:42.485Z,1.70
2023-08-31T02:10:09.575Z,2.00
2023-08-31T02:12:38.343Z,1.67
2023-08-31T02:15:07.640Z,1.77
2023-08-31T02:17:38.053Z,1.50
2023-08-31T02:20:07.460Z,1.67
2023-08-31T02:22:35.862Z,1.60
2023-08-31T02:25:03.763Z,1.47
2023-08-31T02:27:30.672Z,1.40
2023-08-31T02:29:57.725Z,1.57
2023-08-31T02:32:24.726Z,1.30
2023-08-31T02:34:51.833Z,1.30
2023-08-31T02:37:19.092Z,1.37
2023-08-31T02:39:46.107Z,1.30
2023-08-31T02:42:15.503Z,1.20
2023-08-31T02:44:42.626Z,1.40
2023-08-31T02:47:09.725Z,1.47
2023-08-31T02:49:36.687Z,1.20
2023-08-31T02:52:04.195Z,1.00
2023-08-31T02:54:31.331Z,1.33
2023-08-31T02:56:58.412Z,1.17
2023-08-31T02:59:26.409Z,1.30
2023-08-31T03:01:53.463Z,1.03
2023-08-31T03:04:20.738Z,1.20
2023-08-31T03:06:48.357Z,1.07
2023-08-31T03:09:15.451Z,1.27
2023-08-31T03:11:42.463Z,0.93
2023-08-31T03:14:11.156Z,1.10
2023-08-31T03:16:38.566Z,1.00
2023-08-31T03:19:07.407Z,1.03
2023-08-31T03:21:34.546Z,0.93
2023-08-31T03:24:01.610Z,1.07
2023-08-31T03:26:28.692Z,1.10
2023-08-31T03:28:55.823Z,1.03
2023-08-31T03:31:23.212Z,0.90
2023-08-31T03:33:51.412Z,0.97
2023-08-31T03:36:18.558Z,1.00
2023-08-31T03:38:45.539Z,1.10
2023-08-31T03:41:12.944Z,0.80
2023-08-31T03:43:40.559Z,1.00
2023-08-31T03:46:07.987Z,0.90
2023-08-31T03:48:34.934Z,0.97
2023-08-31T03:51:02.210Z,1.30
2023-08-31T03:53:29.249Z,0.73
2023-08-31T03:55:59.292Z,1.10
2023-08-31T03:58:26.966Z,0.90
2023-08-31T04:00:55.525Z,0.80
2023-08-31T04:03:23.472Z,0.90
2023-08-31T04:05:56.191Z,1.00
2023-08-31T04:08:23.558Z,0.80
2023-08-31T04:10:50.672Z,0.70
2023-08-31T04:13:17.781Z,0.97
2023-08-31T04:15:44.805Z,1.03
2023-08-31T04:18:11.905Z,0.97
2023-08-31T04:20:39.250Z,1.00
2023-08-31T04:23:06.374Z,0.70
2023-08-31T04:25:33.342Z,0.80
2023-08-31T04:28:00.360Z,0.90
2023-08-31T04:30:27.845Z,1.07
2023-08-31T04:32:54.917Z,0.93
2023-08-31T04:35:22.387Z,1.17
2023-08-31T04:37:49.438Z,1.00
2023-08-31T04:40:16.478Z,0.90
2023-08-31T04:42:44.056Z,1.00
2023-08-31T04:45:12.588Z,1.10
2023-08-31T04:47:39.644Z,0.90
2023-08-31T04:50:07.782Z,1.30
2023-08-31T04:52:35.101Z,1.00
2023-08-31T04:55:04.621Z,1.00
2023-08-31T04:57:31.647Z,1.10
2023-08-31T04:59:58.625Z,1.00
2023-08-31T05:02:25.587Z,1.00
2023-08-31T05:04:53.120Z,1.30
2023-08-31T05:07:20.072Z,1.13
2023-08-31T05:09:47.088Z,1.30
2023-08-31T05:12:14.118Z,1.43
2023-08-31T05:14:41.104Z,1.27
2023-08-31T05:17:08.089Z,1.30
2023-08-31T05:19:35.063Z,1.40
2023-08-31T05:22:02.389Z,1.40
2023-08-31T05:24:29.272Z,1.40
2023-08-31T05:26:56.297Z,1.20
2023-08-31T05:29:23.177Z,1.37
2023-08-31T05:31:50.170Z,1.30
2023-08-31T05:34:19.278Z,1.60
2023-08-31T05:36:46.310Z,1.43
2023-08-31T05:39:13.216Z,1.40
2023-08-31T05:41:43.197Z,1.67
2023-08-31T05:44:11.415Z,1.50
2023-08-31T05:46:39.774Z,1.50
2023-08-31T05:49:08.009Z,1.63
2023-08-31T05:51:35.549Z,1.67
2023-08-31T05:54:02.467Z,1.50
2023-08-31T05:56:29.692Z,2.13
2023-08-31T05:58:57.135Z,2.17
2023-08-31T06:01:24.346Z,2.00
2023-08-31T06:03:51.484Z,2.30
2023-08-31T06:06:18.413Z,2.23
2023-08-31T06:08:45.338Z,2.50
2023-08-31T06:11:14.757Z,2.60
2023-08-31T06:13:42.515Z,2.73
2023-08-31T06:16:09.615Z,2.70
2023-08-31T06:18:36.755Z,2.70
2023-08-31T06:21:03.932Z,2.67
2023-08-31T06:23:30.856Z,2.80
2023-08-31T06:25:57.948Z,2.87
2023-08-31T06:28:25.078Z,3.10
2023-08-31T06:30:52.639Z,3.50
2023-08-31T06:33:21.265Z,3.10
2023-08-31T06:35:53.091Z,2.93
2023-08-31T06:38:21.079Z,3.10
2023-08-31T06:40:48.598Z,3.17
2023-08-31T06:43:15.861Z,3.30
2023-08-31T06:45:43.113Z,3.23
2023-08-31T06:48:10.403Z,3.40
2023-08-31T06:50:37.394Z,3.30
2023-08-31T06:53:04.663Z,3.10
2023-08-31T06:55:33.374Z,3.73
2023-08-31T06:58:01.999Z,3.00
2023-08-31T07:00:29.327Z,3.37
2023-08-31T07:02:56.745Z,3.20
2023-08-31T07:05:27.174Z,3.30
2023-08-31T07:07:55.441Z,3.67
2023-08-31T07:10:23.266Z,3.73
2023-08-31T07:12:50.387Z,3.40
2023-08-31T07:15:20.194Z,3.07
2023-08-31T07:17:47.399Z,3.90
2023-08-31T07:20:14.501Z,3.60
2023-08-31T07:22:41.804Z,3.93
2023-08-31T07:25:09.582Z,3.50
2023-08-31T07:27:36.779Z,3.43
2023-08-31T07:30:05.151Z,3.80
2023-08-31T07:32:33.055Z,3.83
2023-08-31T07:35:00.637Z,3.70
2023-08-31T07:37:27.668Z,3.23
2023-08-31T07:39:54.881Z,3.63
2023-08-31T07:42:21.887Z,3.50
2023-08-31T07:44:49.000Z,3.47
2023-08-31T07:47:16.061Z,3.10
2023-08-31T07:49:43.412Z,3.63
2023-08-31T07:52:10.498Z,3.40
2023-08-31T07:54:37.824Z,3.83
2023-08-31T07:57:05.068Z,3.80
2023-08-31T07:59:32.142Z,3.37
2023-08-31T08:01:59.430Z,3.97
2023-08-31T08:04:27.542Z,3.40
2023-08-31T08:06:55.386Z,3.10
2023-08-31T08:09:22.442Z,3.33
2023-08-31T08:11:49.441Z,3.00
2023-08-31T08:14:16.634Z,3.40
2023-08-31T08:16:44.211Z,3.07
2023-08-31T08:19:11.439Z,3.03
2023-08-31T08:21:38.592Z,2.80
2023-08-31T08:24:05.738Z,2.97
2023-08-31T08:26:32.743Z,3.10
2023-08-31T08:28:59.688Z,2.93
2023-08-31T08:31:26.679Z,2.70
2023-08-31T08:33:53.886Z,2.73
2023-08-31T08:36:20.741Z,2.70
2023-08-31T08:38:48.103Z,2.40
2023-08-31T08:41:15.566Z,2.30
2023-08-31T08:43:44.540Z,2.30
2023-08-31T08:46:12.033Z,2.50
2023-08-31T08:48:40.437Z,2.57
2023-08-31T08:51:08.538Z,2.20
2023-08-31T08:53:35.904Z,2.37
2023-08-31T08:56:03.162Z,2.77
2023-08-31T08:58:30.899Z,2.30
2023-08-31T09:00:58.119Z,2.53
2023-08-31T09:03:25.467Z,2.33
2023-08-31T09:05:55.633Z,2.60
2023-08-31T09:08:30.822Z,2.30
2023-08-31T09:10:59.195Z,2.50
2023-08-31T09:13:30.852Z,2.47
2023-08-31T09:15:59.447Z,2.50
2023-08-31T09:18:28.690Z,2.77
2023-08-31T09:21:00.005Z,2.50
2023-08-31T09:23:27.384Z,2.60
2023-08-31T09:25:56.117Z,2.63
2023-08-31T09:28:28.949Z,2.67
2023-08-31T09:31:08.165Z,2.77
2023-08-31T09:33:38.943Z,2.73
2023-08-31T09:36:09.026Z,2.63
2023-08-31T09:38:46.494Z,2.70
2023-08-31T09:41:14.092Z,3.20
2023-08-31T09:43:41.062Z,3.10
2023-08-31T09:46:09.937Z,3.00
2023-08-31T09:48:39.080Z,2.83
2023-08-31T09:51:06.764Z,2.83
2023-08-31T09:53:37.571Z,2.87
2023-08-31T09:56:07.565Z,3.20
2023-08-31T09:58:34.611Z,3.10
2023-08-31T10:01:03.573Z,3.50
2023-08-31T10:03:32.604Z,3.03
2023-08-31T10:06:01.775Z,3.30
2023-08-31T10:08:32.436Z,3.23
2023-08-31T10:11:04.723Z,3.33
2023-08-31T10:13:36.322Z,3.30
2023-08-31T10:16:05.803Z,3.50
2023-08-31T10:18:35.306Z,3.63
2023-08-31T10:21:03.896Z,3.87
2023-08-31T10:23:31.140Z,3.97
2023-08-31T10:25:58.144Z,3.33
2023-08-31T10:28:27.058Z,3.80
2023-08-31T10:31:08.511Z,3.90
2023-08-31T10:33:43.969Z,3.40
2023-08-31T10:36:16.799Z,3.57
2023-08-31T10:39:01.645Z,3.70
2023-08-31T10:41:37.677Z,3.83
2023-08-31T10:44:28.102Z,3.37
2023-08-31T10:46:55.719Z,3.60
2023-08-31T10:49:24.048Z,3.50
2023-08-31T10:51:56.168Z,3.63
2023-08-31T10:54:27.717Z,3.50
2023-08-31T10:57:09.961Z,3.47
2023-08-31T10:59:55.966Z,3.50
2023-08-31T11:02:33.046Z,3.63
2023-08-31T11:05:11.985Z,3.33
2023-08-31T11:07:44.522Z,3.40
2023-08-31T11:10:15.342Z,3.17
2023-08-31T11:12:44.707Z,3.00
2023-08-31T11:15:19.858Z,3.07
2023-08-31T11:17:47.975Z,3.17
2023-08-31T11:20:17.956Z,3.00
2023-08-31T11:22:48.121Z,2.90
2023-08-31T11:25:15.454Z,3.07
2023-08-31T11:27:42.617Z,3.00
2023-08-31T11:30:17.219Z,2.73
2023-08-31T11:32:53.157Z,2.80
2023-08-31T11:35:22.130Z,2.80
2023-08-31T11:37:56.860Z,2.70
2023-08-31T11:40:24.135Z,2.70
2023-08-31T11:42:52.127Z,3.50
2023-08-31T11:45:20.001Z,2.80
2023-08-31T11:47:49.346Z,3.00
2023-08-31T11:50:18.015Z,2.70
2023-08-31T11:52:45.694Z,2.87
2023-08-31T11:55:14.524Z,2.67
2023-08-31T11:57:41.686Z,2.90
2023-08-31T12:00:12.063Z,3.10
2023-08-31T12:02:39.336Z,3.20
2023-08-31T12:05:06.867Z,3.13
2023-08-31T12:07:40.993Z,3.20
2023-08-31T12:10:09.112Z,2.83
2023-08-31T12:12:37.689Z,2.53
2023-08-31T12:15:06.760Z,2.87
2023-08-31T12:17:39.485Z,3.10
2023-08-31T12:20:08.140Z,3.03
2023-08-31T12:22:36.298Z,2.60
2023-08-31T12:25:03.580Z,3.30
2023-08-31T12:27:31.749Z,2.80
2023-08-31T12:29:59.281Z,2.93
2023-08-31T12:32:26.422Z,2.73
2023-08-31T12:34:53.756Z,2.60
2023-08-31T12:37:21.050Z,2.70
2023-08-31T12:39:48.155Z,3.20
2023-08-31T12:42:23.213Z,3.07
2023-08-31T12:44:51.227Z,2.60
2023-08-31T12:47:18.460Z,3.30
2023-08-31T12:49:45.627Z,3.03
2023-08-31T12:52:12.565Z,2.83
2023-08-31T12:54:39.587Z,2.87
2023-08-31T12:57:06.633Z,2.70
2023-08-31T12:59:33.798Z,2.80
2023-08-31T13:02:01.813Z,2.90
2023-08-31T13:04:29.697Z,2.67
2023-08-31T13:06:56.716Z,2.80
2023-08-31T13:09:23.806Z,2.57
2023-08-31T13:11:50.812Z,3.00
2023-08-31T13:14:17.737Z,2.83
2023-08-31T13:16:44.928Z,3.00
2023-08-31T13:19:12.025Z,2.67
2023-08-31T13:21:39.058Z,2.70
2023-08-31T13:24:06.500Z,2.57
2023-08-31T13:26:33.441Z,2.50
2023-08-31T13:29:00.367Z,2.97
2023-08-31T13:31:27.510Z,2.73
2023-08-31T13:33:54.453Z,2.33
2023-08-31T13:36:21.705Z,2.57
2023-08-31T13:38:48.743Z,2.70
2023-08-31T13:41:16.190Z,2.57
2023-08-31T13:43:43.739Z,2.33
2023-08-31T13:46:10.826Z,2.60
2023-08-31T13:48:38.574Z,2.33
2023-08-31T13:51:05.726Z,2.57
2023-08-31T13:53:41.916Z,2.60
2023-08-31T13:56:08.848Z,2.30
2023-08-31T13:58:35.863Z,2.33
2023-08-31T14:01:04.895Z,2.40
2023-08-31T14:03:32.194Z,2.20
2023-08-31T14:05:59.305Z,2.00
2023-08-31T14:08:26.324Z,1.80
2023-08-31T14:10:55.502Z,1.87
2023-08-31T14:13:23.041Z,1.90
2023-08-31T14:15:50.090Z,1.90
2023-08-31T14:18:17.515Z,2.17
2023-08-31T14:20:44.937Z,2.00
2023-08-31T14:23:11.917Z,2.17
2023-08-31T14:25:39.514Z,2.00
2023-08-31T14:28:07.066Z,1.50
2023-08-31T14:30:36.678Z,2.00
2023-08-31T14:33:04.063Z,1.70
2023-08-31T14:35:31.576Z,1.90
2023-08-31T14:38:01.933Z,1.80
2023-08-31T14:40:28.831Z,2.00
2023-08-31T14:42:58.039Z,1.90
2023-08-31T14:45:25.998Z,2.00
2023-08-31T14:47:53.006Z,2.17
2023-08-31T14:50:21.993Z,1.80
2023-08-31T14:52:49.918Z,1.80
2023-08-31T14:55:16.984Z,2.00
2023-08-31T14:57:44.262Z,2.13
2023-08-31T15:00:11.912Z,2.20
2023-08-31T15:02:58.973Z,2.20
2023-08-31T15:05:45.914Z,2.00
2023-08-31T15:08:33.021Z,1.73
2023-08-31T15:11:20.238Z,2.10
2023-08-31T15:14:07.395Z,2.00
2023-08-31T15:16:55.179Z,1.70
2023-08-31T15:19:42.466Z,2.10
2023-08-31T15:22:29.570Z,2.00
2023-08-31T15:25:16.553Z,2.27
2023-08-31T15:28:04.725Z,2.30
2023-08-31T15:30:52.771Z,2.13
2023-08-31T15:33:39.763Z,2.50
2023-08-31T15:36:27.918Z,2.40
2023-08-31T15:39:14.898Z,2.40
2023-08-31T15:42:01.873Z,2.47
2023-08-31T15:44:48.906Z,2.63
2023-08-31T15:47:35.984Z,2.57
2023-08-31T15:50:22.990Z,2.30
2023-08-31T15:53:09.994Z,2.70
2023-08-31T15:55:57.150Z,2.60
2023-08-31T15:58:44.619Z,2.67
2023-08-31T16:01:31.778Z,2.60
2023-08-31T16:04:18.997Z,2.30
2023-08-31T16:07:05.979Z,2.90
2023-08-31T16:09:52.958Z,2.10
2023-08-31T16:12:39.946Z,3.17
2023-08-31T16:15:27.690Z,2.60
2023-08-31T16:18:16.100Z,2.80
2023-08-31T16:21:04.423Z,2.50
2023-08-31T16:23:51.622Z,2.63
2023-08-31T16:26:38.912Z,2.20
2023-08-31T16:29:25.917Z,2.30
2023-08-31T16:32:12.910Z,2.90
2023-08-31T16:34:59.977Z,2.23
2023-08-31T16:37:46.972Z,2.20
2023-08-31T16:40:34.701Z,2.13
2023-08-31T16:43:21.686Z,2.57
2023-08-31T16:46:08.920Z,2.40
2023-08-31T16:48:55.849Z,2.10
2023-08-31T16:51:43.049Z,1.87
2023-08-31T16:54:30.259Z,1.93
2023-08-31T16:57:17.488Z,2.10
2023-08-31T17:00:04.503Z,1.57
2023-08-31T17:02:51.762Z,2.00
2023-08-31T17:05:39.170Z,1.73
2023-08-31T17:08:26.626Z,1.90
2023-08-31T17:11:13.528Z,1.77
2023-08-31T17:14:00.667Z,2.00
2023-08-31T17:16:47.628Z,1.67
2023-08-31T17:19:35.224Z,1.70
2023-08-31T17:22:22.308Z,1.53
2023-08-31T17:25:09.446Z,1.70
2023-08-31T17:27:56.337Z,1.50
2023-08-31T17:30:43.510Z,1.40
2023-08-31T17:33:30.484Z,1.50
2023-08-31T17:36:17.606Z,1.53
2023-08-31T17:39:05.370Z,1.50
2023-08-31T17:41:52.334Z,1.47
2023-08-31T17:44:39.222Z,1.67
2023-08-31T17:47:26.386Z,1.43
2023-08-31T17:50:13.428Z,1.60
2023-08-31T17:53:00.572Z,1.53
2023-08-31T17:55:47.575Z,1.60
2023-08-31T17:58:34.675Z,1.40
2023-08-31T18:01:21.759Z,1.53
2023-08-31T18:04:08.690Z,1.50
2023-08-31T18:06:58.597Z,1.40
2023-08-31T18:09:48.669Z,1.63
2023-08-31T18:12:35.750Z,1.17
2023-08-31T18:15:22.854Z,1.70
2023-08-31T18:18:09.722Z,1.17
2023-08-31T18:20:57.907Z,1.30
2023-08-31T18:23:44.823Z,1.30
2023-08-31T18:26:32.028Z,1.50
2023-08-31T18:29:18.851Z,1.27
2023-08-31T18:32:06.139Z,1.40
2023-08-31T18:34:55.261Z,1.13
2023-08-31T18:37:42.405Z,1.20
2023-08-31T18:40:29.863Z,1.40
2023-08-31T18:43:16.847Z,1.00
2023-08-31T18:46:04.553Z,1.10
2023-08-31T18:48:51.808Z,1.10
2023-08-31T18:51:38.793Z,1.33
2023-08-31T18:54:26.117Z,1.30
2023-08-31T18:57:13.028Z,1.27
2023-08-31T19:00:00.207Z,1.00
2023-08-31T19:02:47.113Z,1.20
2023-08-31T19:05:34.098Z,1.20
2023-08-31T19:08:21.025Z,1.20
2023-08-31T19:11:08.182Z,1.00
2023-08-31T19:13:55.228Z,0.87
2023-08-31T19:16:42.477Z,1.10
2023-08-31T19:19:29.560Z,0.90
2023-08-31T19:22:16.646Z,1.30
2023-08-31T19:25:03.502Z,1.40
2023-08-31T19:27:50.626Z,1.20
2023-08-31T19:30:37.585Z,1.30
2023-08-31T19:33:25.398Z,1.30
2023-08-31T19:36:13.688Z,1.30
2023-08-31T19:39:00.990Z,1.00
2023-08-31T19:41:47.934Z,1.00
2023-08-31T19:44:35.253Z,1.00
2023-08-31T19:47:22.086Z,1.40
2023-08-31T19:50:10.150Z,1.33
2023-08-31T19:52:57.751Z,1.00
2023-08-31T19:55:44.989Z,0.90
2023-08-31T19:58:31.888Z,1.10
2023-08-31T20:01:19.171Z,1.03
2023-08-31T20:04:06.089Z,1.03
2023-08-31T20:06:53.208Z,1.10
2023-08-31T20:09:40.100Z,1.17
2023-08-31T20:12:28.344Z,1.17
2023-08-31T20:15:15.417Z,1.10
2023-08-31T20:18:02.676Z,1.10
2023-08-31T20:20:49.906Z,1.20
2023-08-31T20:23:36.970Z,1.00
2023-08-31T20:26:24.326Z,1.10
2023-08-31T20:29:11.371Z,0.90
2023-08-31T20:31:58.232Z,0.80
2023-08-31T20:34:45.577Z,1.10
2023-08-31T20:37:32.539Z,1.00
2023-08-31T20:40:19.622Z,1.10
2023-08-31T20:43:06.725Z,1.00
2023-08-31T20:45:54.173Z,1.13
2023-08-31T20:48:41.060Z,1.00
2023-08-31T20:51:29.063Z,0.80
2023-08-31T20:54:15.942Z,0.97
2023-08-31T20:57:03.318Z,1.07
2023-08-31T20:59:50.145Z,0.87
2023-08-31T21:02:37.232Z,1.10
2023-08-31T21:05:24.220Z,1.00
2023-08-31T21:08:11.553Z,1.03
2023-08-31T21:10:58.710Z,0.90
2023-08-31T21:13:45.859Z,0.90
2023-08-31T21:16:32.869Z,0.83
2023-08-31T21:19:19.981Z,0.97
2023-08-31T21:22:06.940Z,1.10
2023-08-31T21:24:53.958Z,1.10
2023-08-31T21:27:40.871Z,0.90
2023-08-31T21:30:28.281Z,1.13
2023-08-31T21:33:15.288Z,1.13
2023-08-31T21:36:03.502Z,1.67
2023-08-31T21:38:51.087Z,0.90
2023-08-31T21:41:38.125Z,1.00
2023-08-31T21:44:25.329Z,1.13
2023-08-31T21:47:12.618Z,1.20
2023-08-31T21:49:59.526Z,1.07
2023-08-31T21:52:46.443Z,1.00
2023-08-31T21:55:33.313Z,1.10
2023-08-31T21:58:20.379Z,0.90
2023-08-31T22:00:47.453Z,1.10
2023-08-31T22:03:14.669Z,1.30
2023-08-31T22:05:43.025Z,1.20
2023-08-31T22:08:11.750Z,1.10
2023-08-31T22:10:40.004Z,1.30
2023-08-31T22:13:09.214Z,1.10
2023-08-31T22:15:36.426Z,1.23
2023-08-31T22:18:04.946Z,1.00
2023-08-31T22:20:32.125Z,1.20
2023-08-31T22:23:00.733Z,1.43
2023-08-31T22:25:29.107Z,1.33
2023-08-31T22:27:59.098Z,1.20
2023-08-31T22:30:27.238Z,1.30
2023-08-31T22:32:55.761Z,1.23
2023-08-31T22:35:24.300Z,1.40
2023-08-31T22:37:52.503Z,1.37
2023-08-31T22:40:19.711Z,1.13
2023-08-31T22:42:46.741Z,1.47
2023-08-31T22:45:13.788Z,1.37
2023-08-31T22:47:41.073Z,1.30
2023-08-31T22:50:09.932Z,1.47
2023-08-31T22:52:37.422Z,1.30
2023-08-31T22:55:05.208Z,1.40
2023-08-31T22:57:32.757Z,1.10
2023-08-31T22:59:59.915Z,1.17
2023-08-31T23:02:27.017Z,1.40
2023-08-31T23:04:54.100Z,1.00
2023-08-31T23:07:21.141Z,1.40
2023-08-31T23:09:49.165Z,1.30
2023-08-31T23:12:17.229Z,1.40
2023-08-31T23:14:47.067Z,1.40
2023-08-31T23:17:14.256Z,1.30
2023-08-31T23:19:41.538Z,1.37
2023-08-31T23:22:08.792Z,1.30
2023-08-31T23:24:36.021Z,1.10
2023-08-31T23:27:03.611Z,1.43
2023-08-31T23:29:32.569Z,1.30
2023-08-31T23:31:59.515Z,1.40
2023-08-31T23:34:26.601Z,1.47
2023-08-31T23:36:53.697Z,1.33
2023-08-31T23:39:20.823Z,1.13
2023-08-31T23:41:48.080Z,1.30
2023-08-31T23:44:15.163Z,1.00
2023-08-31T23:46:42.257Z,1.23
2023-08-31T23:49:09.305Z,1.47
2023-08-31T23:51:36.354Z,1.40
2023-08-31T23:54:05.913Z,1.80
2023-08-31T23:56:33.157Z,1.33
2023-08-31T23:59:00.051Z,1.23
